sensor_id;sensor_type;location;lat;lon;timestamp;temperature;humidity
50548;DHT22;38013;48.810;8.818;2023-05-07T00:00:25;15.20;65.90
50548;DHT22;38013;48.810;8.818;2023-05-07T00:02:52;15.20;65.70
50548;DHT22;38013;48.810;8.818;2023-05-07T00:05:21;15.20;65.90
50548;DHT22;38013;48.810;8.818;2023-05-07T00:07:48;15.10;65.90
50548;DHT22;38013;48.810;8.818;2023-05-07T00:10:19;15.10;66.00
50548;DHT22;38013;48.810;8.818;2023-05-07T00:12:46;15.10;66.00
50548;DHT22;38013;48.810;8.818;2023-05-07T00:15:16;15.10;66.10
50548;DHT22;38013;48.810;8.818;2023-05-07T00:17:43;15.00;66.40
50548;DHT22;38013;48.810;8.818;2023-05-07T00:20:11;15.00;66.80
50548;DHT22;38013;48.810;8.818;2023-05-07T00:22:39;15.00;66.40
50548;DHT22;38013;48.810;8.818;2023-05-07T00:25:07;14.90;66.40
50548;DHT22;38013;48.810;8.818;2023-05-07T00:27:34;14.90;66.40
50548;DHT22;38013;48.810;8.818;2023-05-07T00:30:05;14.90;66.40
50548;DHT22;38013;48.810;8.818;2023-05-07T00:32:33;14.90;66.50
50548;DHT22;38013;48.810;8.818;2023-05-07T00:35:00;14.90;66.60
50548;DHT22;38013;48.810;8.818;2023-05-07T00:37:27;14.90;66.70
50548;DHT22;38013;48.810;8.818;2023-05-07T00:39:54;14.90;66.60
50548;DHT22;38013;48.810;8.818;2023-05-07T00:42:22;14.80;66.60
50548;DHT22;38013;48.810;8.818;2023-05-07T00:44:49;14.80;66.70
50548;DHT22;38013;48.810;8.818;2023-05-07T00:47:17;14.80;66.80
50548;DHT22;38013;48.810;8.818;2023-05-07T00:49:44;14.70;66.90
50548;DHT22;38013;48.810;8.818;2023-05-07T00:52:17;14.70;67.10
50548;DHT22;38013;48.810;8.818;2023-05-07T00:54:48;14.70;67.10
50548;DHT22;38013;48.810;8.818;2023-05-07T00:57:16;14.60;67.00
50548;DHT22;38013;48.810;8.818;2023-05-07T00:59:43;14.60;67.10
50548;DHT22;38013;48.810;8.818;2023-05-07T01:02:11;14.60;67.20
50548;DHT22;38013;48.810;8.818;2023-05-07T01:04:38;14.60;67.40
50548;DHT22;38013;48.810;8.818;2023-05-07T01:07:05;14.60;67.40
50548;DHT22;38013;48.810;8.818;2023-05-07T01:09:33;14.50;67.30
50548;DHT22;38013;48.810;8.818;2023-05-07T01:12:01;14.60;67.40
50548;DHT22;38013;48.810;8.818;2023-05-07T01:14:30;14.50;67.40
50548;DHT22;38013;48.810;8.818;2023-05-07T01:16:59;14.50;67.40
50548;DHT22;38013;48.810;8.818;2023-05-07T01:19:28;14.60;67.60
50548;DHT22;38013;48.810;8.818;2023-05-07T01:22:02;14.50;67.80
50548;DHT22;38013;48.810;8.818;2023-05-07T01:24:36;14.50;67.80
50548;DHT22;38013;48.810;8.818;2023-05-07T01:27:05;14.50;67.90
50548;DHT22;38013;48.810;8.818;2023-05-07T01:29:33;14.50;67.80
50548;DHT22;38013;48.810;8.818;2023-05-07T01:32:01;14.50;68.00
50548;DHT22;38013;48.810;8.818;2023-05-07T01:34:31;14.50;68.00
50548;DHT22;38013;48.810;8.818;2023-05-07T01:36:59;14.40;67.90
50548;DHT22;38013;48.810;8.818;2023-05-07T01:39:28;14.40;67.80
50548;DHT22;38013;48.810;8.818;2023-05-07T01:41:56;14.40;67.90
50548;DHT22;38013;48.810;8.818;2023-05-07T01:44:24;14.40;68.00
50548;DHT22;38013;48.810;8.818;2023-05-07T01:46:51;14.40;68.20
50548;DHT22;38013;48.810;8.818;2023-05-07T01:49:19;14.40;68.20
50548;DHT22;38013;48.810;8.818;2023-05-07T01:51:46;14.30;68.10
50548;DHT22;38013;48.810;8.818;2023-05-07T01:54:13;14.40;68.20
50548;DHT22;38013;48.810;8.818;2023-05-07T01:56:41;14.30;68.20
50548;DHT22;38013;48.810;8.818;2023-05-07T01:59:07;14.30;68.20
50548;DHT22;38013;48.810;8.818;2023-05-07T02:01:35;14.30;68.10
50548;DHT22;38013;48.810;8.818;2023-05-07T02:04:01;14.30;68.20
50548;DHT22;38013;48.810;8.818;2023-05-07T02:06:29;14.30;68.30
50548;DHT22;38013;48.810;8.818;2023-05-07T02:09:02;14.20;68.30
50548;DHT22;38013;48.810;8.818;2023-05-07T02:11:29;14.20;68.40
50548;DHT22;38013;48.810;8.818;2023-05-07T02:13:56;14.20;68.40
50548;DHT22;38013;48.810;8.818;2023-05-07T02:16:23;14.20;68.40
50548;DHT22;38013;48.810;8.818;2023-05-07T02:18:51;14.20;68.50
50548;DHT22;38013;48.810;8.818;2023-05-07T02:21:18;14.20;68.60
50548;DHT22;38013;48.810;8.818;2023-05-07T02:23:45;14.20;68.60
50548;DHT22;38013;48.810;8.818;2023-05-07T02:26:12;14.20;68.70
50548;DHT22;38013;48.810;8.818;2023-05-07T02:28:39;14.20;68.70
50548;DHT22;38013;48.810;8.818;2023-05-07T02:31:05;14.20;68.60
50548;DHT22;38013;48.810;8.818;2023-05-07T02:33:33;14.20;68.60
50548;DHT22;38013;48.810;8.818;2023-05-07T02:36:10;14.20;68.50
50548;DHT22;38013;48.810;8.818;2023-05-07T02:39:03;14.10;68.70
50548;DHT22;38013;48.810;8.818;2023-05-07T02:41:30;14.10;68.30
50548;DHT22;38013;48.810;8.818;2023-05-07T02:43:57;14.10;68.30
50548;DHT22;38013;48.810;8.818;2023-05-07T02:46:24;14.10;68.30
50548;DHT22;38013;48.810;8.818;2023-05-07T02:48:59;14.10;68.30
50548;DHT22;38013;48.810;8.818;2023-05-07T02:51:26;14.00;68.30
50548;DHT22;38013;48.810;8.818;2023-05-07T02:53:56;14.00;68.30
50548;DHT22;38013;48.810;8.818;2023-05-07T02:56:25;14.00;68.30
50548;DHT22;38013;48.810;8.818;2023-05-07T02:58:52;14.00;68.40
50548;DHT22;38013;48.810;8.818;2023-05-07T03:01:21;13.90;68.50
50548;DHT22;38013;48.810;8.818;2023-05-07T03:03:57;13.90;68.60
50548;DHT22;38013;48.810;8.818;2023-05-07T03:06:25;13.80;68.80
50548;DHT22;38013;48.810;8.818;2023-05-07T03:08:52;13.80;69.00
50548;DHT22;38013;48.810;8.818;2023-05-07T03:11:19;13.80;68.90
50548;DHT22;38013;48.810;8.818;2023-05-07T03:13:46;13.80;69.00
50548;DHT22;38013;48.810;8.818;2023-05-07T03:16:17;13.70;68.90
50548;DHT22;38013;48.810;8.818;2023-05-07T03:18:44;13.70;69.00
50548;DHT22;38013;48.810;8.818;2023-05-07T03:21:11;13.70;69.10
50548;DHT22;38013;48.810;8.818;2023-05-07T03:23:38;13.70;69.10
50548;DHT22;38013;48.810;8.818;2023-05-07T03:26:05;13.70;69.00
50548;DHT22;38013;48.810;8.818;2023-05-07T03:28:32;13.60;69.00
50548;DHT22;38013;48.810;8.818;2023-05-07T03:31:02;13.60;69.10
50548;DHT22;38013;48.810;8.818;2023-05-07T03:33:33;13.60;69.10
50548;DHT22;38013;48.810;8.818;2023-05-07T03:36:01;13.60;69.20
50548;DHT22;38013;48.810;8.818;2023-05-07T03:38:28;13.50;68.90
50548;DHT22;38013;48.810;8.818;2023-05-07T03:40:55;13.50;69.10
50548;DHT22;38013;48.810;8.818;2023-05-07T03:43:21;13.50;69.10
50548;DHT22;38013;48.810;8.818;2023-05-07T03:45:56;13.50;69.10
50548;DHT22;38013;48.810;8.818;2023-05-07T03:48:25;13.40;69.20
50548;DHT22;38013;48.810;8.818;2023-05-07T03:50:55;13.40;69.20
50548;DHT22;38013;48.810;8.818;2023-05-07T03:53:24;13.40;69.30
50548;DHT22;38013;48.810;8.818;2023-05-07T03:55:51;13.40;69.40
50548;DHT22;38013;48.810;8.818;2023-05-07T03:58:19;13.30;69.60
50548;DHT22;38013;48.810;8.818;2023-05-07T04:00:47;13.30;69.80
50548;DHT22;38013;48.810;8.818;2023-05-07T04:03:27;13.30;70.00
50548;DHT22;38013;48.810;8.818;2023-05-07T04:05:57;13.20;70.00
50548;DHT22;38013;48.810;8.818;2023-05-07T04:08:24;13.20;70.10
50548;DHT22;38013;48.810;8.818;2023-05-07T04:10:57;13.20;70.20
50548;DHT22;38013;48.810;8.818;2023-05-07T04:13:29;13.20;70.60
50548;DHT22;38013;48.810;8.818;2023-05-07T04:16:00;13.20;70.50
50548;DHT22;38013;48.810;8.818;2023-05-07T04:18:31;13.10;70.40
50548;DHT22;38013;48.810;8.818;2023-05-07T04:20:59;13.10;70.60
50548;DHT22;38013;48.810;8.818;2023-05-07T04:23:26;13.10;70.70
50548;DHT22;38013;48.810;8.818;2023-05-07T04:25:54;13.10;70.90
50548;DHT22;38013;48.810;8.818;2023-05-07T04:28:38;13.10;70.90
50548;DHT22;38013;48.810;8.818;2023-05-07T04:31:07;13.10;70.90
50548;DHT22;38013;48.810;8.818;2023-05-07T04:33:36;13.10;71.00
50548;DHT22;38013;48.810;8.818;2023-05-07T04:36:04;13.20;71.10
50548;DHT22;38013;48.810;8.818;2023-05-07T04:38:36;13.20;71.10
50548;DHT22;38013;48.810;8.818;2023-05-07T04:41:05;13.20;70.80
50548;DHT22;38013;48.810;8.818;2023-05-07T04:43:36;13.10;71.00
50548;DHT22;38013;48.810;8.818;2023-05-07T04:46:03;13.20;71.00
50548;DHT22;38013;48.810;8.818;2023-05-07T04:48:30;13.20;71.10
50548;DHT22;38013;48.810;8.818;2023-05-07T04:50:58;13.20;71.00
50548;DHT22;38013;48.810;8.818;2023-05-07T04:53:25;13.20;71.00
50548;DHT22;38013;48.810;8.818;2023-05-07T04:55:55;13.20;71.10
50548;DHT22;38013;48.810;8.818;2023-05-07T04:58:31;13.30;71.30
50548;DHT22;38013;48.810;8.818;2023-05-07T05:00:59;13.30;71.00
50548;DHT22;38013;48.810;8.818;2023-05-07T05:03:27;13.30;71.10
50548;DHT22;38013;48.810;8.818;2023-05-07T05:05:54;13.30;71.10
50548;DHT22;38013;48.810;8.818;2023-05-07T05:08:22;13.30;71.10
50548;DHT22;38013;48.810;8.818;2023-05-07T05:10:50;13.30;71.20
50548;DHT22;38013;48.810;8.818;2023-05-07T05:13:17;13.30;71.30
50548;DHT22;38013;48.810;8.818;2023-05-07T05:15:45;13.30;71.30
50548;DHT22;38013;48.810;8.818;2023-05-07T05:18:12;13.40;71.30
50548;DHT22;38013;48.810;8.818;2023-05-07T05:20:39;13.40;71.40
50548;DHT22;38013;48.810;8.818;2023-05-07T05:23:08;13.40;71.30
50548;DHT22;38013;48.810;8.818;2023-05-07T05:25:35;13.40;71.40
50548;DHT22;38013;48.810;8.818;2023-05-07T05:28:03;13.40;71.50
50548;DHT22;38013;48.810;8.818;2023-05-07T05:30:33;13.50;71.90
50548;DHT22;38013;48.810;8.818;2023-05-07T05:33:01;13.50;71.90
50548;DHT22;38013;48.810;8.818;2023-05-07T05:35:29;13.50;72.00
50548;DHT22;38013;48.810;8.818;2023-05-07T05:37:57;13.60;72.20
50548;DHT22;38013;48.810;8.818;2023-05-07T05:40:24;13.60;72.10
50548;DHT22;38013;48.810;8.818;2023-05-07T05:42:51;13.70;72.10
50548;DHT22;38013;48.810;8.818;2023-05-07T05:45:18;13.70;72.00
50548;DHT22;38013;48.810;8.818;2023-05-07T05:47:45;13.70;72.00
50548;DHT22;38013;48.810;8.818;2023-05-07T05:50:13;13.80;72.00
50548;DHT22;38013;48.810;8.818;2023-05-07T05:52:40;13.80;72.00
50548;DHT22;38013;48.810;8.818;2023-05-07T05:55:08;13.90;72.20
50548;DHT22;38013;48.810;8.818;2023-05-07T05:57:36;14.00;72.50
50548;DHT22;38013;48.810;8.818;2023-05-07T06:00:04;14.00;72.60
50548;DHT22;38013;48.810;8.818;2023-05-07T06:02:32;14.10;72.50
50548;DHT22;38013;48.810;8.818;2023-05-07T06:05:00;14.10;72.30
50548;DHT22;38013;48.810;8.818;2023-05-07T06:07:27;14.20;72.40
50548;DHT22;38013;48.810;8.818;2023-05-07T06:09:54;14.30;72.40
50548;DHT22;38013;48.810;8.818;2023-05-07T06:12:21;14.40;72.50
50548;DHT22;38013;48.810;8.818;2023-05-07T06:14:48;14.40;72.20
50548;DHT22;38013;48.810;8.818;2023-05-07T06:17:16;14.50;72.20
50548;DHT22;38013;48.810;8.818;2023-05-07T06:19:46;14.60;72.10
50548;DHT22;38013;48.810;8.818;2023-05-07T06:22:15;14.60;72.10
50548;DHT22;38013;48.810;8.818;2023-05-07T06:24:42;14.70;72.10
50548;DHT22;38013;48.810;8.818;2023-05-07T06:27:09;14.80;72.30
50548;DHT22;38013;48.810;8.818;2023-05-07T06:29:38;14.90;72.30
50548;DHT22;38013;48.810;8.818;2023-05-07T06:32:13;15.00;72.30
50548;DHT22;38013;48.810;8.818;2023-05-07T06:34:42;15.10;72.40
50548;DHT22;38013;48.810;8.818;2023-05-07T06:37:09;15.20;72.40
50548;DHT22;38013;48.810;8.818;2023-05-07T06:39:59;15.30;72.50
50548;DHT22;38013;48.810;8.818;2023-05-07T06:42:28;15.40;72.40
50548;DHT22;38013;48.810;8.818;2023-05-07T06:45:00;15.60;72.30
50548;DHT22;38013;48.810;8.818;2023-05-07T06:47:29;15.70;72.30
50548;DHT22;38013;48.810;8.818;2023-05-07T06:49:56;15.80;72.10
50548;DHT22;38013;48.810;8.818;2023-05-07T06:52:26;16.00;72.10
50548;DHT22;38013;48.810;8.818;2023-05-07T06:54:54;16.10;72.10
50548;DHT22;38013;48.810;8.818;2023-05-07T06:57:24;16.30;72.10
50548;DHT22;38013;48.810;8.818;2023-05-07T06:59:51;16.40;72.00
50548;DHT22;38013;48.810;8.818;2023-05-07T07:02:19;16.60;71.70
50548;DHT22;38013;48.810;8.818;2023-05-07T07:04:48;16.70;71.50
50548;DHT22;38013;48.810;8.818;2023-05-07T07:07:15;16.90;71.40
50548;DHT22;38013;48.810;8.818;2023-05-07T07:09:44;17.10;71.00
50548;DHT22;38013;48.810;8.818;2023-05-07T07:12:14;17.30;70.80
50548;DHT22;38013;48.810;8.818;2023-05-07T07:14:42;17.50;70.60
50548;DHT22;38013;48.810;8.818;2023-05-07T07:17:09;17.70;70.00
50548;DHT22;38013;48.810;8.818;2023-05-07T07:19:36;17.90;69.40
50548;DHT22;38013;48.810;8.818;2023-05-07T07:22:04;18.00;69.20
50548;DHT22;38013;48.810;8.818;2023-05-07T07:24:32;18.10;68.90
50548;DHT22;38013;48.810;8.818;2023-05-07T07:27:07;18.30;68.30
50548;DHT22;38013;48.810;8.818;2023-05-07T07:29:35;18.50;68.00
50548;DHT22;38013;48.810;8.818;2023-05-07T07:32:05;18.60;67.60
50548;DHT22;38013;48.810;8.818;2023-05-07T07:34:32;18.70;67.50
50548;DHT22;38013;48.810;8.818;2023-05-07T07:37:00;18.80;67.20
50548;DHT22;38013;48.810;8.818;2023-05-07T07:39:34;18.90;66.80
50548;DHT22;38013;48.810;8.818;2023-05-07T07:42:16;19.00;66.60
50548;DHT22;38013;48.810;8.818;2023-05-07T07:44:42;19.10;66.60
50548;DHT22;38013;48.810;8.818;2023-05-07T07:47:12;19.20;66.60
50548;DHT22;38013;48.810;8.818;2023-05-07T07:49:39;19.30;66.30
50548;DHT22;38013;48.810;8.818;2023-05-07T07:52:09;19.30;66.10
50548;DHT22;38013;48.810;8.818;2023-05-07T07:54:37;19.50;66.40
50548;DHT22;38013;48.810;8.818;2023-05-07T07:57:06;19.60;66.20
50548;DHT22;38013;48.810;8.818;2023-05-07T07:59:33;19.60;66.10
50548;DHT22;38013;48.810;8.818;2023-05-07T08:02:00;19.70;65.90
50548;DHT22;38013;48.810;8.818;2023-05-07T08:04:28;19.80;65.90
50548;DHT22;38013;48.810;8.818;2023-05-07T08:07:00;19.90;65.60
50548;DHT22;38013;48.810;8.818;2023-05-07T08:09:29;20.00;65.50
50548;DHT22;38013;48.810;8.818;2023-05-07T08:11:58;20.10;65.00
50548;DHT22;38013;48.810;8.818;2023-05-07T08:14:25;20.20;64.90
50548;DHT22;38013;48.810;8.818;2023-05-07T08:16:52;20.30;64.30
50548;DHT22;38013;48.810;8.818;2023-05-07T08:19:20;20.40;64.10
50548;DHT22;38013;48.810;8.818;2023-05-07T08:21:47;20.50;63.80
50548;DHT22;38013;48.810;8.818;2023-05-07T08:24:17;20.60;63.90
50548;DHT22;38013;48.810;8.818;2023-05-07T08:26:45;20.70;63.70
50548;DHT22;38013;48.810;8.818;2023-05-07T08:29:14;20.80;63.80
50548;DHT22;38013;48.810;8.818;2023-05-07T08:31:41;20.90;63.40
50548;DHT22;38013;48.810;8.818;2023-05-07T08:34:08;21.00;62.80
50548;DHT22;38013;48.810;8.818;2023-05-07T08:36:39;21.10;62.90
50548;DHT22;38013;48.810;8.818;2023-05-07T08:39:08;21.20;62.40
50548;DHT22;38013;48.810;8.818;2023-05-07T08:41:36;21.40;62.80
50548;DHT22;38013;48.810;8.818;2023-05-07T08:44:06;21.50;62.50
50548;DHT22;38013;48.810;8.818;2023-05-07T08:46:39;21.60;61.90
50548;DHT22;38013;48.810;8.818;2023-05-07T08:49:07;21.70;61.60
50548;DHT22;38013;48.810;8.818;2023-05-07T08:51:35;21.80;61.40
50548;DHT22;38013;48.810;8.818;2023-05-07T08:54:02;21.90;61.10
50548;DHT22;38013;48.810;8.818;2023-05-07T08:56:32;22.10;61.40
50548;DHT22;38013;48.810;8.818;2023-05-07T08:58:59;22.20;60.90
50548;DHT22;38013;48.810;8.818;2023-05-07T09:01:27;22.30;60.40
50548;DHT22;38013;48.810;8.818;2023-05-07T09:03:55;22.40;60.20
50548;DHT22;38013;48.810;8.818;2023-05-07T09:06:23;22.50;60.00
50548;DHT22;38013;48.810;8.818;2023-05-07T09:08:54;22.60;59.60
50548;DHT22;38013;48.810;8.818;2023-05-07T09:11:24;22.70;58.90
50548;DHT22;38013;48.810;8.818;2023-05-07T09:13:55;22.70;59.00
50548;DHT22;38013;48.810;8.818;2023-05-07T09:16:24;22.80;59.00
50548;DHT22;38013;48.810;8.818;2023-05-07T09:18:53;22.90;58.70
50548;DHT22;38013;48.810;8.818;2023-05-07T09:21:22;23.00;58.60
50548;DHT22;38013;48.810;8.818;2023-05-07T09:23:52;23.10;58.60
50548;DHT22;38013;48.810;8.818;2023-05-07T09:29:36;23.30;58.20
50548;DHT22;38013;48.810;8.818;2023-05-07T09:32:37;23.40;57.70
50548;DHT22;38013;48.810;8.818;2023-05-07T09:35:17;23.60;57.70
50548;DHT22;38013;48.810;8.818;2023-05-07T09:37:50;23.70;57.80
50548;DHT22;38013;48.810;8.818;2023-05-07T09:40:26;23.90;57.30
50548;DHT22;38013;48.810;8.818;2023-05-07T09:43:10;24.00;57.20
50548;DHT22;38013;48.810;8.818;2023-05-07T09:45:54;24.20;56.20
50548;DHT22;38013;48.810;8.818;2023-05-07T09:49:01;24.30;55.70
50548;DHT22;38013;48.810;8.818;2023-05-07T09:51:48;24.40;55.30
50548;DHT22;38013;48.810;8.818;2023-05-07T09:54:25;24.50;54.60
50548;DHT22;38013;48.810;8.818;2023-05-07T09:57:19;24.60;54.80
50548;DHT22;38013;48.810;8.818;2023-05-07T10:00:10;24.70;54.80
50548;DHT22;38013;48.810;8.818;2023-05-07T10:03:09;24.70;53.60
50548;DHT22;38013;48.810;8.818;2023-05-07T10:05:47;24.70;54.20
50548;DHT22;38013;48.810;8.818;2023-05-07T10:08:15;24.80;55.00
50548;DHT22;38013;48.810;8.818;2023-05-07T10:10:46;24.80;54.10
50548;DHT22;38013;48.810;8.818;2023-05-07T10:13:19;24.70;53.60
50548;DHT22;38013;48.810;8.818;2023-05-07T10:15:50;24.80;53.40
50548;DHT22;38013;48.810;8.818;2023-05-07T10:18:22;24.80;53.00
50548;DHT22;38013;48.810;8.818;2023-05-07T10:20:57;24.80;53.10
50548;DHT22;38013;48.810;8.818;2023-05-07T10:23:37;24.80;53.10
50548;DHT22;38013;48.810;8.818;2023-05-07T10:26:12;24.70;52.80
50548;DHT22;38013;48.810;8.818;2023-05-07T10:28:59;24.70;52.40
50548;DHT22;38013;48.810;8.818;2023-05-07T10:31:55;24.70;52.20
50548;DHT22;38013;48.810;8.818;2023-05-07T10:34:42;24.70;51.90
50548;DHT22;38013;48.810;8.818;2023-05-07T10:37:11;24.70;52.60
50548;DHT22;38013;48.810;8.818;2023-05-07T10:39:38;24.70;53.10
50548;DHT22;38013;48.810;8.818;2023-05-07T10:42:13;24.60;52.40
50548;DHT22;38013;48.810;8.818;2023-05-07T10:44:46;24.60;52.00
50548;DHT22;38013;48.810;8.818;2023-05-07T10:47:20;24.60;52.40
50548;DHT22;38013;48.810;8.818;2023-05-07T10:52:24;24.60;52.80
50548;DHT22;38013;48.810;8.818;2023-05-07T10:58:26;24.50;54.80
50548;DHT22;38013;48.810;8.818;2023-05-07T11:01:08;24.50;55.80
50548;DHT22;38013;48.810;8.818;2023-05-07T11:04:13;24.40;55.80
50548;DHT22;38013;48.810;8.818;2023-05-07T11:15:15;23.90;56.90
50548;DHT22;38013;48.810;8.818;2023-05-07T11:17:53;23.90;57.60
50548;DHT22;38013;48.810;8.818;2023-05-07T11:20:51;23.70;58.00
50548;DHT22;38013;48.810;8.818;2023-05-07T11:26:15;23.60;58.10
50548;DHT22;38013;48.810;8.818;2023-05-07T11:28:43;23.50;58.10
50548;DHT22;38013;48.810;8.818;2023-05-07T11:31:11;23.50;58.80
50548;DHT22;38013;48.810;8.818;2023-05-07T11:33:39;23.40;58.70
50548;DHT22;38013;48.810;8.818;2023-05-07T11:36:10;23.40;58.90
50548;DHT22;38013;48.810;8.818;2023-05-07T11:38:43;23.40;59.10
50548;DHT22;38013;48.810;8.818;2023-05-07T11:41:11;23.40;59.10
50548;DHT22;38013;48.810;8.818;2023-05-07T11:43:53;23.30;59.40
50548;DHT22;38013;48.810;8.818;2023-05-07T11:46:23;23.30;59.00
50548;DHT22;38013;48.810;8.818;2023-05-07T11:48:51;23.30;59.40
50548;DHT22;38013;48.810;8.818;2023-05-07T11:51:23;23.30;59.20
50548;DHT22;38013;48.810;8.818;2023-05-07T11:53:53;23.30;59.90
50548;DHT22;38013;48.810;8.818;2023-05-07T11:56:20;23.40;60.00
50548;DHT22;38013;48.810;8.818;2023-05-07T11:58:48;23.40;60.40
50548;DHT22;38013;48.810;8.818;2023-05-07T12:01:15;23.40;60.90
50548;DHT22;38013;48.810;8.818;2023-05-07T12:03:44;23.40;60.70
50548;DHT22;38013;48.810;8.818;2023-05-07T12:06:15;23.40;60.50
50548;DHT22;38013;48.810;8.818;2023-05-07T12:08:44;23.50;60.50
50548;DHT22;38013;48.810;8.818;2023-05-07T12:11:16;23.50;60.50
50548;DHT22;38013;48.810;8.818;2023-05-07T12:13:48;23.50;60.70
50548;DHT22;38013;48.810;8.818;2023-05-07T12:16:15;23.60;60.50
50548;DHT22;38013;48.810;8.818;2023-05-07T12:18:42;23.60;60.70
50548;DHT22;38013;48.810;8.818;2023-05-07T12:21:09;23.60;60.90
50548;DHT22;38013;48.810;8.818;2023-05-07T12:23:37;23.70;60.30
50548;DHT22;38013;48.810;8.818;2023-05-07T12:26:05;23.70;60.10
50548;DHT22;38013;48.810;8.818;2023-05-07T12:28:37;23.80;60.10
50548;DHT22;38013;48.810;8.818;2023-05-07T12:31:06;23.90;59.60
50548;DHT22;38013;48.810;8.818;2023-05-07T12:33:37;23.90;59.60
50548;DHT22;38013;48.810;8.818;2023-05-07T12:36:06;24.00;59.40
50548;DHT22;38013;48.810;8.818;2023-05-07T12:38:38;24.00;58.40
50548;DHT22;38013;48.810;8.818;2023-05-07T12:41:08;24.00;57.90
50548;DHT22;38013;48.810;8.818;2023-05-07T12:43:36;24.00;57.80
50548;DHT22;38013;48.810;8.818;2023-05-07T12:46:06;23.90;58.00
50548;DHT22;38013;48.810;8.818;2023-05-07T12:48:36;23.90;57.70
50548;DHT22;38013;48.810;8.818;2023-05-07T12:51:05;23.80;57.00
50548;DHT22;38013;48.810;8.818;2023-05-07T12:53:33;23.70;56.50
50548;DHT22;38013;48.810;8.818;2023-05-07T12:56:01;23.60;56.60
50548;DHT22;38013;48.810;8.818;2023-05-07T12:58:30;23.60;56.20
50548;DHT22;38013;48.810;8.818;2023-05-07T13:01:01;23.50;56.40
50548;DHT22;38013;48.810;8.818;2023-05-07T13:03:35;23.40;56.30
50548;DHT22;38013;48.810;8.818;2023-05-07T13:06:07;23.40;56.40
50548;DHT22;38013;48.810;8.818;2023-05-07T13:08:40;23.40;56.60
50548;DHT22;38013;48.810;8.818;2023-05-07T13:11:10;23.20;57.10
50548;DHT22;38013;48.810;8.818;2023-05-07T13:13:40;23.20;57.10
50548;DHT22;38013;48.810;8.818;2023-05-07T13:16:10;23.00;57.00
50548;DHT22;38013;48.810;8.818;2023-05-07T13:18:39;22.90;57.20
50548;DHT22;38013;48.810;8.818;2023-05-07T13:21:07;22.70;57.30
50548;DHT22;38013;48.810;8.818;2023-05-07T13:23:34;22.60;57.50
50548;DHT22;38013;48.810;8.818;2023-05-07T13:26:01;22.40;56.90
50548;DHT22;38013;48.810;8.818;2023-05-07T13:28:40;22.30;57.10
50548;DHT22;38013;48.810;8.818;2023-05-07T13:31:08;22.10;57.00
50548;DHT22;38013;48.810;8.818;2023-05-07T13:33:35;21.90;57.20
50548;DHT22;38013;48.810;8.818;2023-05-07T13:36:05;21.70;57.80
50548;DHT22;38013;48.810;8.818;2023-05-07T13:38:32;21.40;58.30
50548;DHT22;38013;48.810;8.818;2023-05-07T13:40:59;21.20;58.90
50548;DHT22;38013;48.810;8.818;2023-05-07T13:43:26;21.00;59.30
50548;DHT22;38013;48.810;8.818;2023-05-07T13:45:53;20.70;59.50
50548;DHT22;38013;48.810;8.818;2023-05-07T13:48:20;20.60;60.10
50548;DHT22;38013;48.810;8.818;2023-05-07T13:50:46;20.40;60.50
50548;DHT22;38013;48.810;8.818;2023-05-07T13:53:13;20.20;61.10
50548;DHT22;38013;48.810;8.818;2023-05-07T13:55:44;20.00;61.70
50548;DHT22;38013;48.810;8.818;2023-05-07T13:58:11;19.80;62.40
50548;DHT22;38013;48.810;8.818;2023-05-07T14:00:38;19.60;62.90
50548;DHT22;38013;48.810;8.818;2023-05-07T14:03:05;19.50;63.60
50548;DHT22;38013;48.810;8.818;2023-05-07T14:05:32;19.30;64.00
50548;DHT22;38013;48.810;8.818;2023-05-07T14:07:59;19.20;64.60
50548;DHT22;38013;48.810;8.818;2023-05-07T14:10:26;19.10;65.20
50548;DHT22;38013;48.810;8.818;2023-05-07T14:12:53;19.00;65.90
50548;DHT22;38013;48.810;8.818;2023-05-07T14:15:20;18.90;66.40
50548;DHT22;38013;48.810;8.818;2023-05-07T14:17:50;18.80;66.90
50548;DHT22;38013;48.810;8.818;2023-05-07T14:20:17;18.70;67.30
50548;DHT22;38013;48.810;8.818;2023-05-07T14:22:47;18.60;67.70
50548;DHT22;38013;48.810;8.818;2023-05-07T14:25:14;18.60;68.20
50548;DHT22;38013;48.810;8.818;2023-05-07T14:27:46;18.60;68.50
50548;DHT22;38013;48.810;8.818;2023-05-07T14:30:13;18.60;68.90
50548;DHT22;38013;48.810;8.818;2023-05-07T14:32:40;18.60;69.00
50548;DHT22;38013;48.810;8.818;2023-05-07T14:35:07;18.60;69.30
50548;DHT22;38013;48.810;8.818;2023-05-07T14:37:35;18.60;69.60
50548;DHT22;38013;48.810;8.818;2023-05-07T14:40:02;18.60;70.00
50548;DHT22;38013;48.810;8.818;2023-05-07T14:42:29;18.60;69.90
50548;DHT22;38013;48.810;8.818;2023-05-07T14:45:00;18.60;69.90
50548;DHT22;38013;48.810;8.818;2023-05-07T14:47:29;18.60;70.30
50548;DHT22;38013;48.810;8.818;2023-05-07T14:49:56;18.70;70.50
50548;DHT22;38013;48.810;8.818;2023-05-07T14:52:24;18.70;70.60
50548;DHT22;38013;48.810;8.818;2023-05-07T14:54:51;18.80;70.50
50548;DHT22;38013;48.810;8.818;2023-05-07T14:57:18;18.80;70.60
50548;DHT22;38013;48.810;8.818;2023-05-07T14:59:45;18.90;70.90
50548;DHT22;38013;48.810;8.818;2023-05-07T15:02:13;18.90;70.90
50548;DHT22;38013;48.810;8.818;2023-05-07T15:04:46;19.00;70.90
50548;DHT22;38013;48.810;8.818;2023-05-07T15:07:15;19.00;71.50
50548;DHT22;38013;48.810;8.818;2023-05-07T15:09:43;19.10;70.60
50548;DHT22;38013;48.810;8.818;2023-05-07T15:12:10;19.10;70.20
50548;DHT22;38013;48.810;8.818;2023-05-07T15:14:38;19.10;70.70
50548;DHT22;38013;48.810;8.818;2023-05-07T15:17:06;19.10;70.70
50548;DHT22;38013;48.810;8.818;2023-05-07T15:19:33;19.20;70.40
50548;DHT22;38013;48.810;8.818;2023-05-07T15:22:00;19.20;70.30
50548;DHT22;38013;48.810;8.818;2023-05-07T15:24:30;19.30;70.20
50548;DHT22;38013;48.810;8.818;2023-05-07T15:26:57;19.20;70.20
50548;DHT22;38013;48.810;8.818;2023-05-07T15:29:24;19.30;70.20
50548;DHT22;38013;48.810;8.818;2023-05-07T15:31:52;19.30;70.10
50548;DHT22;38013;48.810;8.818;2023-05-07T15:34:19;19.30;70.00
50548;DHT22;38013;48.810;8.818;2023-05-07T15:36:46;19.30;70.10
50548;DHT22;38013;48.810;8.818;2023-05-07T15:39:13;19.30;69.90
50548;DHT22;38013;48.810;8.818;2023-05-07T15:41:41;19.30;70.00
50548;DHT22;38013;48.810;8.818;2023-05-07T15:44:08;19.30;70.50
50548;DHT22;38013;48.810;8.818;2023-05-07T15:46:35;19.40;70.60
50548;DHT22;38013;48.810;8.818;2023-05-07T15:49:02;19.40;70.70
50548;DHT22;38013;48.810;8.818;2023-05-07T15:51:34;19.40;70.30
50548;DHT22;38013;48.810;8.818;2023-05-07T15:54:02;19.50;70.20
50548;DHT22;38013;48.810;8.818;2023-05-07T15:56:32;19.50;70.10
50548;DHT22;38013;48.810;8.818;2023-05-07T15:58:59;19.50;70.30
50548;DHT22;38013;48.810;8.818;2023-05-07T16:01:27;19.60;70.10
50548;DHT22;38013;48.810;8.818;2023-05-07T16:03:55;19.60;70.30
50548;DHT22;38013;48.810;8.818;2023-05-07T16:06:22;19.70;70.70